createdAt,value
2023-04-25T00:02:04.864Z,98173.63
2023-04-25T00:04:35.227Z,98173.52
2023-04-25T00:07:04.876Z,98177.95
2023-04-25T00:09:34.621Z,98174.32
2023-04-25T00:12:03.796Z,98168.52
2023-04-25T00:14:35.575Z,98172.91
2023-04-25T00:17:06.057Z,98177.92
2023-04-25T00:19:36.524Z,98175.70
2023-04-25T00:22:07.275Z,98168.92
2023-04-25T00:24:37.188Z,98170.73
2023-04-25T00:27:06.569Z,98178.83
2023-04-25T00:29:35.845Z,98186.44
2023-04-25T00:32:04.556Z,98190.53
2023-04-25T00:34:33.488Z,98184.77
2023-04-25T00:37:05.486Z,98182.02
2023-04-25T00:39:34.840Z,98180.60
2023-04-25T00:42:04.845Z,98173.77
2023-04-25T00:44:35.182Z,98169.13
2023-04-25T00:47:04.949Z,98163.91
2023-04-25T00:49:34.434Z,98164.44
2023-04-25T00:52:03.739Z,98163.34
2023-04-25T00:54:33.492Z,98164.40
2023-04-25T00:57:03.371Z,98169.59
2023-04-25T00:59:33.101Z,98171.83
2023-04-25T01:02:02.389Z,98164.53
2023-04-25T01:04:31.723Z,98172.52
2023-04-25T01:07:01.562Z,98173.23
2023-04-25T01:09:33.463Z,98175.55
2023-04-25T01:12:02.681Z,98167.02
2023-04-25T01:14:31.256Z,98165.09
2023-04-25T01:17:00.421Z,98163.48
2023-04-25T01:19:29.431Z,98166.44
2023-04-25T01:21:59.038Z,98164.02
2023-04-25T01:24:28.213Z,98163.67
2023-04-25T01:26:58.217Z,98167.42
2023-04-25T01:29:28.579Z,98168.45
2023-04-25T01:32:00.066Z,98169.89
2023-04-25T01:34:29.110Z,98172.48
2023-04-25T01:37:00.872Z,98170.05
2023-04-25T01:39:29.873Z,98166.33
2023-04-25T01:42:00.467Z,98167.36
2023-04-25T01:44:29.503Z,98168.21
2023-04-25T01:46:58.612Z,98162.86
2023-04-25T01:49:28.011Z,98158.48
2023-04-25T01:51:57.053Z,98151.77
2023-04-25T01:54:26.155Z,98146.79
2023-04-25T01:56:55.089Z,98141.52
2023-04-25T01:59:23.963Z,98141.16
2023-04-25T02:01:53.083Z,98143.30
2023-04-25T02:04:22.451Z,98145.12
2023-04-25T02:06:51.680Z,98139.91
2023-04-25T02:09:20.679Z,98133.77
2023-04-25T02:11:49.822Z,98131.48
2023-04-25T02:14:19.247Z,98125.73
2023-04-25T02:16:48.844Z,98128.28
2023-04-25T02:19:18.693Z,98129.63
2023-04-25T02:21:48.881Z,98129.30
2023-04-25T02:24:18.652Z,98129.20
2023-04-25T02:26:48.361Z,98120.95
2023-04-25T02:29:17.910Z,98113.90
2023-04-25T02:31:46.818Z,98109.76
2023-04-25T02:34:15.888Z,98097.23
2023-04-25T02:36:44.993Z,98086.73
2023-04-25T02:39:13.963Z,98088.83
2023-04-25T02:41:42.925Z,98088.43
2023-04-25T02:44:12.258Z,98080.12
2023-04-25T02:46:41.382Z,98080.69
2023-04-25T02:49:10.013Z,98086.73
2023-04-25T02:51:38.942Z,98087.15
2023-04-25T02:54:08.154Z,98085.86
2023-04-25T02:56:37.227Z,98084.21
2023-04-25T02:59:06.152Z,98080.27
2023-04-25T03:01:35.107Z,98081.07
2023-04-25T03:04:04.124Z,98086.46
2023-04-25T03:06:32.989Z,98088.91
2023-04-25T03:09:02.552Z,98088.63
2023-04-25T03:11:31.816Z,98083.09
2023-04-25T03:14:00.830Z,98078.07
2023-04-25T03:16:30.286Z,98077.96
2023-04-25T03:18:59.103Z,98074.48
2023-04-25T03:21:28.372Z,98076.41
2023-04-25T03:23:57.880Z,98073.95
2023-04-25T03:26:27.190Z,98073.48
2023-04-25T03:28:56.176Z,98077.30
2023-04-25T03:31:25.047Z,98075.40
2023-04-25T03:33:53.930Z,98074.75
2023-04-25T03:36:23.113Z,98073.20
2023-04-25T03:38:52.354Z,98074.80
2023-04-25T03:41:22.243Z,98075.05
2023-04-25T03:43:50.946Z,98076.46
2023-04-25T03:46:20.136Z,98075.34
2023-04-25T03:48:49.272Z,98081.50
2023-04-25T03:51:18.320Z,98078.34
2023-04-25T03:53:47.186Z,98071.34
2023-04-25T03:56:16.903Z,98067.38
2023-04-25T03:58:46.737Z,98062.63
2023-04-25T04:01:15.593Z,98064.77
2023-04-25T04:03:44.867Z,98062.97
2023-04-25T04:06:14.451Z,98061.02
2023-04-25T04:08:43.386Z,98061.52
2023-04-25T04:11:12.607Z,98060.90
2023-04-25T04:13:41.752Z,98065.38
2023-04-25T04:16:10.720Z,98071.95
2023-04-25T04:18:39.631Z,98076.23
2023-04-25T04:21:08.652Z,98075.78
2023-04-25T04:23:39.503Z,98075.14
2023-04-25T04:26:10.183Z,98073.94
2023-04-25T04:28:39.336Z,98076.37
2023-04-25T04:31:09.182Z,98076.05
2023-04-25T04:33:38.903Z,98077.02
2023-04-25T04:36:09.313Z,98079.78
2023-04-25T04:38:40.141Z,98073.84
2023-04-25T04:41:11.216Z,98072.31
2023-04-25T04:43:41.152Z,98066.23
2023-04-25T04:46:11.687Z,98068.16
2023-04-25T04:48:41.556Z,98063.02
2023-04-25T04:51:11.048Z,98064.52
2023-04-25T04:53:40.465Z,98061.52
2023-04-25T04:56:09.435Z,98058.59
2023-04-25T04:58:38.556Z,98053.31
2023-04-25T05:01:08.058Z,98045.85
2023-04-25T05:03:37.096Z,98055.45
2023-04-25T05:06:06.784Z,98046.55
2023-04-25T05:08:36.108Z,98042.63
2023-04-25T05:11:05.417Z,98043.11
2023-04-25T05:13:34.534Z,98046.23
2023-04-25T05:16:05.612Z,98050.97
2023-04-25T05:18:35.150Z,98049.69
2023-04-25T05:21:04.412Z,98051.28
2023-04-25T05:23:35.301Z,98049.80
2023-04-25T05:26:04.582Z,98040.66
2023-04-25T05:28:34.687Z,98049.07
2023-04-25T05:31:03.789Z,98053.76
2023-04-25T05:33:32.788Z,98058.27
2023-04-25T05:36:02.026Z,98060.91
2023-04-25T05:38:33.264Z,98061.91
2023-04-25T05:41:03.846Z,98060.48
2023-04-25T05:43:33.379Z,98064.95
2023-04-25T05:46:02.228Z,98066.99
2023-04-25T05:48:31.624Z,98069.47
2023-04-25T05:51:00.587Z,98068.55
2023-04-25T05:53:29.725Z,98063.05
2023-04-25T05:55:58.776Z,98058.75
2023-04-25T05:58:28.259Z,98052.25
2023-04-25T06:00:57.220Z,98052.40
2023-04-25T06:03:26.426Z,98053.29
2023-04-25T06:05:55.501Z,98056.71
2023-04-25T06:08:24.572Z,98053.56
2023-04-25T06:10:53.632Z,98053.23
2023-04-25T06:13:23.302Z,98050.95
2023-04-25T06:15:52.410Z,98045.10
2023-04-25T06:18:21.546Z,98042.27
2023-04-25T06:20:50.466Z,98042.06
2023-04-25T06:23:19.616Z,98044.07
2023-04-25T06:25:48.679Z,98036.12
2023-04-25T06:28:18.481Z,98035.02
2023-04-25T06:30:47.614Z,98044.88
2023-04-25T06:33:17.116Z,98044.09
2023-04-25T06:35:47.192Z,98036.54
2023-04-25T06:38:17.374Z,98039.66
2023-04-25T06:40:46.562Z,98037.36
2023-04-25T06:43:15.292Z,98038.40
2023-04-25T06:45:47.009Z,98042.44
2023-04-25T06:48:17.289Z,98047.18
2023-04-25T06:50:46.550Z,98052.63
2023-04-25T06:53:15.447Z,98050.27
2023-04-25T06:55:44.571Z,98042.69
2023-04-25T06:58:13.978Z,98033.81
2023-04-25T07:00:43.459Z,98032.77
2023-04-25T07:03:13.764Z,98027.16
2023-04-25T07:05:43.084Z,98028.80
2023-04-25T07:08:12.535Z,98034.14
2023-04-25T07:10:43.526Z,98035.66
2023-04-25T07:13:12.830Z,98032.60
2023-04-25T07:15:43.531Z,98042.45
2023-04-25T07:18:14.748Z,98044.40
2023-04-25T07:20:46.832Z,98045.82
2023-04-25T07:23:16.820Z,98041.15
2023-04-25T07:25:46.490Z,98035.30
2023-04-25T07:28:17.412Z,98039.88
2023-04-25T07:30:48.413Z,98038.20
2023-04-25T07:33:18.149Z,98032.99
2023-04-25T07:35:47.719Z,98032.91
2023-04-25T07:38:17.159Z,98028.14
2023-04-25T07:40:47.619Z,98027.73
2023-04-25T07:43:18.540Z,98023.64
2023-04-25T07:45:48.926Z,98026.57
2023-04-25T07:48:21.124Z,98025.71
2023-04-25T07:50:52.334Z,98026.59
2023-04-25T07:53:20.657Z,98023.16
2023-04-25T07:55:51.370Z,98027.23
2023-04-25T07:58:24.925Z,98019.59
2023-04-25T08:00:56.568Z,98023.75
2023-04-25T08:03:28.059Z,98018.39
2023-04-25T08:05:58.961Z,98021.33
2023-04-25T08:08:28.552Z,98020.20
2023-04-25T08:10:57.851Z,98020.38
2023-04-25T08:13:27.040Z,98016.26
2023-04-25T08:15:57.202Z,98007.45
2023-04-25T08:18:28.405Z,98007.21
2023-04-25T08:21:00.009Z,98009.34
2023-04-25T08:23:29.905Z,98007.86
2023-04-25T08:26:00.249Z,98006.13
2023-04-25T08:28:30.972Z,98003.17
2023-04-25T08:31:00.310Z,98012.14
2023-04-25T08:33:29.993Z,98012.95
2023-04-25T08:35:59.511Z,98007.60
2023-04-25T08:38:29.685Z,98007.74
2023-04-25T08:41:03.117Z,98008.33
2023-04-25T08:43:32.547Z,98010.13
2023-04-25T08:46:02.855Z,98013.41
2023-04-25T08:48:34.271Z,98011.42
2023-04-25T08:51:05.309Z,98008.11
2023-04-25T08:53:36.286Z,98017.08
2023-04-25T08:56:11.215Z,98016.21
2023-04-25T08:58:43.308Z,98016.24
2023-04-25T09:01:14.534Z,98015.98
2023-04-25T09:03:46.175Z,98022.48
2023-04-25T09:06:19.265Z,98029.41
2023-04-25T09:08:52.061Z,98027.78
2023-04-25T09:11:24.183Z,98030.42
2023-04-25T09:14:14.117Z,98027.58
2023-04-25T09:17:02.792Z,98028.85
2023-04-25T09:19:40.909Z,98032.52
2023-04-25T09:22:11.316Z,98032.52
2023-04-25T09:24:43.125Z,98033.70
2023-04-25T09:27:19.958Z,98032.75
2023-04-25T09:29:48.944Z,98032.85
2023-04-25T09:32:24.116Z,98023.86
2023-04-25T09:34:56.189Z,98020.86
2023-04-25T09:37:30.497Z,98021.84
2023-04-25T09:40:04.514Z,98024.14
2023-04-25T09:42:36.375Z,98025.19
2023-04-25T09:45:05.940Z,98029.73
2023-04-25T09:47:40.563Z,98019.02
2023-04-25T09:50:21.074Z,98021.75
2023-04-25T09:53:07.021Z,98023.74
2023-04-25T09:55:38.135Z,98021.99
2023-04-25T09:58:10.447Z,98022.81
2023-04-25T10:00:41.581Z,98018.73
2023-04-25T10:03:12.821Z,98020.02
2023-04-25T10:05:45.149Z,98018.63
2023-04-25T10:08:15.875Z,98018.92
2023-04-25T10:10:46.229Z,98022.21
2023-04-25T10:13:16.949Z,98020.71
2023-04-25T10:15:48.059Z,98016.30
2023-04-25T10:18:19.795Z,98011.12
2023-04-25T10:20:49.594Z,98014.29
2023-04-25T10:23:19.282Z,98007.63
2023-04-25T10:25:51.002Z,98002.14
2023-04-25T10:28:21.442Z,98002.08
2023-04-25T10:31:05.683Z,97999.38
2023-04-25T10:33:43.808Z,97996.95
2023-04-25T10:36:16.562Z,97994.79
2023-04-25T10:38:48.428Z,97994.23
2023-04-25T10:41:21.523Z,97994.39
2023-04-25T10:44:00.830Z,97986.70
2023-04-25T10:46:35.435Z,97979.66
2023-04-25T10:49:05.053Z,97977.70
2023-04-25T10:51:53.988Z,97979.02
2023-04-25T10:54:28.119Z,97983.41
2023-04-25T10:57:01.187Z,97976.98
2023-04-25T10:59:33.256Z,97977.59
2023-04-25T11:02:15.583Z,97971.80
2023-04-25T11:04:47.165Z,97962.98
2023-04-25T11:07:31.635Z,97957.98
2023-04-25T11:10:05.544Z,97952.95
2023-04-25T11:12:35.422Z,97942.11
2023-04-25T11:15:05.346Z,97933.65
2023-04-25T11:17:36.066Z,97932.61
2023-04-25T11:20:09.876Z,97932.20
2023-04-25T11:22:43.211Z,97926.05
2023-04-25T11:25:14.432Z,97922.13
2023-04-25T11:27:54.166Z,97921.83
2023-04-25T11:30:25.453Z,97916.58
2023-04-25T11:32:55.864Z,97907.60
2023-04-25T11:35:27.170Z,97908.56
2023-04-25T11:37:57.412Z,97907.67
2023-04-25T11:40:26.955Z,97899.74
2023-04-25T11:42:56.208Z,97906.23
2023-04-25T11:45:25.454Z,97907.94
2023-04-25T11:47:54.896Z,97916.39
2023-04-25T11:50:24.092Z,97911.58
2023-04-25T11:52:58.372Z,97911.67
2023-04-25T11:55:28.240Z,97905.30
2023-04-25T11:58:01.961Z,97895.38
2023-04-25T12:00:32.007Z,97891.98
2023-04-25T12:03:02.007Z,97889.94
2023-04-25T12:05:36.845Z,97889.08
2023-04-25T12:08:17.701Z,97887.20
2023-04-25T12:10:48.535Z,97884.35
2023-04-25T12:13:26.402Z,97878.00
2023-04-25T12:15:58.919Z,97877.09
2023-04-25T12:18:32.005Z,97877.34
2023-04-25T12:21:01.702Z,97876.48
2023-04-25T12:23:32.190Z,97879.09
2023-04-25T12:26:04.290Z,97873.16
2023-04-25T12:28:34.628Z,97863.33
2023-04-25T12:31:06.803Z,97858.55
2023-04-25T12:33:38.056Z,97865.26
2023-04-25T12:36:12.785Z,97869.10
2023-04-25T12:38:43.957Z,97856.01
2023-04-25T12:41:13.408Z,97848.86
2023-04-25T12:43:42.424Z,97837.54
2023-04-25T12:46:12.324Z,97835.48
2023-04-25T12:48:41.943Z,97833.19
2023-04-25T12:51:11.466Z,97826.55
2023-04-25T12:53:42.403Z,97831.97
2023-04-25T12:56:12.303Z,97826.95
2023-04-25T12:58:41.951Z,97817.95
2023-04-25T13:01:10.910Z,97823.70
2023-04-25T13:03:41.096Z,97832.20
2023-04-25T13:06:10.375Z,97831.44
2023-04-25T13:08:40.178Z,97832.17
2023-04-25T13:11:10.052Z,97831.14
2023-04-25T13:13:39.198Z,97827.67
2023-04-25T13:16:09.111Z,97828.25
2023-04-25T13:18:38.836Z,97829.05
2023-04-25T13:21:08.374Z,97825.80
2023-04-25T13:23:37.598Z,97828.63
2023-04-25T13:26:07.692Z,97831.77
2023-04-25T13:28:37.132Z,97827.68
2023-04-25T13:31:07.895Z,97828.44
2023-04-25T13:33:37.975Z,97832.45
2023-04-25T13:36:07.801Z,97836.77
2023-04-25T13:38:37.523Z,97834.86
2023-04-25T13:41:08.341Z,97831.86
2023-04-25T13:43:37.711Z,97832.88
2023-04-25T13:46:08.296Z,97829.20
2023-04-25T13:48:38.731Z,97831.16
2023-04-25T13:51:08.795Z,97830.53
2023-04-25T13:53:37.851Z,97831.61
2023-04-25T13:56:07.556Z,97829.66
2023-04-25T13:58:37.433Z,97832.95
2023-04-25T14:01:07.392Z,97830.00
2023-04-25T14:03:36.763Z,97832.74
2023-04-25T14:06:06.287Z,97832.05
2023-04-25T14:08:34.849Z,97838.05
2023-04-25T14:11:04.534Z,97839.23
2023-04-25T14:13:33.523Z,97840.76
2023-04-25T14:16:02.582Z,97835.45
2023-04-25T14:18:31.684Z,97833.58
2023-04-25T14:21:01.438Z,97835.19
2023-04-25T14:23:30.879Z,97837.00
2023-04-25T14:25:59.907Z,97827.83
2023-04-25T14:28:28.609Z,97832.30
2023-04-25T14:30:57.506Z,97836.09
2023-04-25T14:33:26.298Z,97847.67
2023-04-25T14:35:55.882Z,97850.48
2023-04-25T14:38:26.814Z,97849.81
2023-04-25T14:40:55.854Z,97846.48
2023-04-25T14:43:24.671Z,97840.92
2023-04-25T14:45:54.427Z,97838.95
2023-04-25T14:48:24.698Z,97839.39
2023-04-25T14:50:53.885Z,97833.55
2023-04-25T14:53:22.363Z,97830.32
2023-04-25T14:55:51.255Z,97831.05
2023-04-25T14:58:20.004Z,97836.11
2023-04-25T15:00:49.052Z,97837.20
2023-04-25T15:03:19.697Z,97841.45
2023-04-25T15:05:48.734Z,97843.94
2023-04-25T15:08:17.537Z,97849.18
2023-04-25T15:10:47.648Z,97853.73
2023-04-25T15:13:17.064Z,97851.64
2023-04-25T15:15:46.238Z,97852.48
2023-04-25T15:18:15.696Z,97849.59
2023-04-25T15:20:45.001Z,97849.27
2023-04-25T15:23:13.978Z,97852.36
2023-04-25T15:25:43.499Z,97850.58
2023-04-25T15:28:16.236Z,97858.15
2023-04-25T15:30:46.868Z,97862.99
2023-04-25T15:33:17.159Z,97859.88
2023-04-25T15:35:48.386Z,97862.20
2023-04-25T15:38:18.705Z,97867.14
2023-04-25T15:40:48.198Z,97874.84
2023-04-25T15:43:18.589Z,97876.48
2023-04-25T15:45:49.324Z,97873.12
2023-04-25T15:48:21.415Z,97875.67
2023-04-25T15:50:51.813Z,97884.61
2023-04-25T15:53:23.764Z,97890.00
2023-04-25T15:55:53.277Z,97899.83
2023-04-25T15:58:22.683Z,97906.13
2023-04-25T16:00:53.025Z,97913.48
2023-04-25T16:03:22.721Z,97918.52
2023-04-25T16:05:51.878Z,97923.07
2023-04-25T16:08:20.584Z,97921.84
2023-04-25T16:10:50.137Z,97919.34
2023-04-25T16:13:19.108Z,97920.91
2023-04-25T16:15:48.399Z,97923.73
2023-04-25T16:18:18.714Z,97926.21
2023-04-25T16:20:48.369Z,97926.95
2023-04-25T16:23:17.473Z,97935.95
2023-04-25T16:25:47.043Z,97941.71
2023-04-25T16:28:16.692Z,97939.27
2023-04-25T16:30:46.735Z,97936.61
2023-04-25T16:33:17.015Z,97932.81
2023-04-25T16:35:47.125Z,97943.91
2023-04-25T16:38:17.376Z,97940.74
2023-04-25T16:40:47.876Z,97937.12
2023-04-25T16:43:20.642Z,97941.45
2023-04-25T16:45:50.624Z,97943.41
2023-04-25T16:48:21.620Z,97943.80
2023-04-25T16:50:53.322Z,97949.46
2023-04-25T16:53:22.993Z,97949.41
2023-04-25T16:55:52.609Z,97957.59
2023-04-25T16:58:22.420Z,97957.08
2023-04-25T17:00:53.370Z,97954.05
2023-04-25T17:03:24.029Z,97963.77
2023-04-25T17:06:01.840Z,97963.77
2023-04-25T17:08:31.918Z,97962.44
2023-04-25T17:11:05.758Z,97964.23
2023-04-25T17:13:36.519Z,97966.80
2023-04-25T17:16:07.228Z,97967.81
2023-04-25T17:18:37.643Z,97965.30
2023-04-25T17:21:08.564Z,97967.17
2023-04-25T17:23:45.513Z,97972.48
2023-04-25T17:26:18.029Z,97974.98
2023-04-25T17:28:51.072Z,97973.57
2023-04-25T17:31:25.262Z,97973.45
2023-04-25T17:33:55.724Z,97972.16
2023-04-25T17:36:28.014Z,97976.19
2023-04-25T17:38:59.324Z,97972.58
2023-04-25T17:41:30.077Z,97971.99
2023-04-25T17:44:00.727Z,97972.10
2023-04-25T17:46:31.173Z,97977.50
2023-04-25T17:49:01.805Z,97985.48
2023-04-25T17:51:32.083Z,97991.17
2023-04-25T17:54:01.723Z,97992.54
2023-04-25T17:56:31.815Z,97991.30
2023-04-25T17:59:01.757Z,97993.64
2023-04-25T18:01:31.520Z,98000.41
2023-04-25T18:04:02.144Z,98007.35
2023-04-25T18:06:33.721Z,98020.40
2023-04-25T18:09:03.925Z,98030.17
2023-04-25T18:11:33.838Z,98037.42
2023-04-25T18:14:04.126Z,98040.98
2023-04-25T18:16:34.553Z,98043.27
2023-04-25T18:19:06.388Z,98051.06
2023-04-25T18:21:36.234Z,98056.14
2023-04-25T18:24:07.244Z,98058.99
2023-04-25T18:26:36.603Z,98061.85
2023-04-25T18:29:07.747Z,98063.42
2023-04-25T18:31:37.797Z,98062.86
2023-04-25T18:34:08.712Z,98066.90
2023-04-25T18:36:38.643Z,98071.00
2023-04-25T18:41:55.142Z,98077.13
2023-04-25T18:44:28.874Z,98091.83
2023-04-25T18:46:58.008Z,98098.75
2023-04-25T18:49:27.537Z,98103.91
2023-04-25T18:51:57.785Z,98107.73
2023-04-25T18:54:27.244Z,98105.60
2023-04-25T18:56:57.989Z,98106.70
2023-04-25T18:59:27.780Z,98111.69
2023-04-25T19:01:57.252Z,98118.02
2023-04-25T19:04:27.090Z,98121.17
2023-04-25T19:06:57.633Z,98127.66
2023-04-25T19:09:27.237Z,98130.63
2023-04-25T19:11:56.681Z,98139.38
2023-04-25T19:14:26.911Z,98139.63
2023-04-25T19:16:59.592Z,98146.89
2023-04-25T19:19:29.342Z,98149.60
2023-04-25T19:21:59.512Z,98150.33
2023-04-25T19:24:29.109Z,98158.73
2023-04-25T19:26:57.912Z,98157.73
2023-04-25T19:29:28.317Z,98153.34
2023-04-25T19:31:59.455Z,98162.27
2023-04-25T19:34:28.896Z,98162.05
2023-04-25T19:36:58.165Z,98164.54
2023-04-25T19:39:27.401Z,98167.91
2023-04-25T19:41:56.989Z,98173.19
2023-04-25T19:44:26.548Z,98177.90
2023-04-25T19:46:55.604Z,98182.87
2023-04-25T19:49:25.269Z,98187.05
2023-04-25T19:51:54.647Z,98197.17
2023-04-25T19:54:23.526Z,98200.60
2023-04-25T19:56:53.186Z,98200.27
2023-04-25T19:59:22.651Z,98208.23
2023-04-25T20:01:52.567Z,98207.44
2023-04-25T20:04:21.825Z,98207.40
2023-04-25T20:06:52.226Z,98202.09
2023-04-25T20:09:22.475Z,98201.96
2023-04-25T20:11:51.812Z,98205.16
2023-04-25T20:14:20.959Z,98207.34
2023-04-25T20:16:50.314Z,98208.30
2023-04-25T20:19:19.701Z,98215.81
2023-04-25T20:21:48.828Z,98218.67
2023-04-25T20:24:17.656Z,98222.11
2023-04-25T20:26:46.476Z,98221.58
2023-04-25T20:29:15.592Z,98217.98
2023-04-25T20:31:44.724Z,98214.95
2023-04-25T20:34:14.126Z,98209.42
2023-04-25T20:36:42.976Z,98204.38
2023-04-25T20:39:14.528Z,98206.98
2023-04-25T20:41:47.875Z,98211.70
2023-04-25T20:44:20.511Z,98214.84
2023-04-25T20:46:52.130Z,98215.41
2023-04-25T20:49:23.526Z,98216.95
2023-04-25T20:51:55.016Z,98221.02
2023-04-25T20:54:27.756Z,98222.55
2023-04-25T20:56:58.452Z,98226.03
2023-04-25T20:59:29.988Z,98228.17
2023-04-25T21:02:00.800Z,98226.86
2023-04-25T21:04:32.460Z,98221.77
2023-04-25T21:07:02.114Z,98214.20
2023-04-25T21:09:31.845Z,98215.23
2023-04-25T21:12:03.678Z,98213.06
2023-04-25T21:14:32.928Z,98209.69
2023-04-25T21:17:05.552Z,98205.73
2023-04-25T21:19:36.781Z,98206.61
2023-04-25T21:22:07.356Z,98213.35
2023-04-25T21:24:40.249Z,98218.95
2023-04-25T21:27:11.491Z,98221.47
2023-04-25T21:29:43.172Z,98217.23
2023-04-25T21:32:17.966Z,98211.58
2023-04-25T21:34:49.233Z,98203.34
2023-04-25T21:37:19.597Z,98206.01
2023-04-25T21:39:50.065Z,98205.22
2023-04-25T21:42:20.135Z,98203.02
2023-04-25T21:44:52.732Z,98205.62
2023-04-25T21:47:23.169Z,98208.11
2023-04-25T21:49:53.966Z,98212.03
2023-04-25T21:52:23.952Z,98211.35
2023-04-25T21:54:53.362Z,98211.02
2023-04-25T21:57:24.942Z,98212.95
2023-04-25T21:59:54.339Z,98221.23
2023-04-25T22:02:23.841Z,98231.21
2023-04-25T22:04:52.967Z,98234.70
2023-04-25T22:07:21.990Z,98235.64
2023-04-25T22:09:55.146Z,98241.38
2023-04-25T22:12:25.084Z,98242.17
2023-04-25T22:14:54.548Z,98241.05
2023-04-25T22:17:26.342Z,98239.80
2023-04-25T22:19:55.329Z,98242.09
2023-04-25T22:22:24.496Z,98235.70
2023-04-25T22:24:53.229Z,98237.66
2023-04-25T22:27:23.936Z,98239.14
2023-04-25T22:29:53.487Z,98234.30
2023-04-25T22:32:23.156Z,98234.85
2023-04-25T22:34:53.499Z,98238.17
2023-04-25T22:37:22.413Z,98240.64
2023-04-25T22:39:51.791Z,98248.63
2023-04-25T22:42:21.022Z,98248.94
2023-04-25T22:44:50.305Z,98257.94
2023-04-25T22:47:19.225Z,98263.20
2023-04-25T22:49:48.062Z,98259.22
2023-04-25T22:52:17.608Z,98257.30
2023-04-25T22:54:46.812Z,98256.09
2023-04-25T22:57:17.077Z,98260.92
2023-04-25T22:59:46.109Z,98266.52
2023-04-25T23:02:15.450Z,98270.21
2023-04-25T23:04:45.054Z,98271.84
2023-04-25T23:07:14.017Z,98272.51
2023-04-25T23:09:43.223Z,98275.67
2023-04-25T23:12:12.097Z,98271.25
2023-04-25T23:14:41.178Z,98275.84
2023-04-25T23:17:10.143Z,98279.44
2023-04-25T23:19:39.089Z,98282.71
2023-04-25T23:22:07.949Z,98285.29
2023-04-25T23:24:41.420Z,98287.23
2023-04-25T23:27:10.519Z,98291.58
2023-04-25T23:29:40.819Z,98295.05
2023-04-25T23:32:10.135Z,98294.45
2023-04-25T23:34:38.894Z,98294.36
2023-04-25T23:37:08.952Z,98298.37
2023-04-25T23:39:38.055Z,98301.54
2023-04-25T23:42:07.226Z,98304.36
2023-04-25T23:44:37.915Z,98299.56
2023-04-25T23:47:07.852Z,98295.69
2023-04-25T23:49:37.792Z,98301.44
2023-04-25T23:52:07.468Z,98302.39
2023-04-25T23:54:37.008Z,98302.79
2023-04-25T23:57:07.002Z,98300.77
2023-04-25T23:59:37.182Z,98302.75
